createdAt,value
2023-01-15T00:01:02.916Z,4.11
2023-01-15T00:04:23.228Z,3.92
2023-01-15T00:07:48.500Z,3.72
2023-01-15T00:11:05.173Z,3.89
2023-01-15T00:14:21.497Z,4.11
2023-01-15T00:17:37.703Z,4.15
2023-01-15T00:20:54.129Z,4.24
2023-01-15T00:24:24.939Z,4.27
2023-01-15T00:27:46.088Z,4.33
2023-01-15T00:31:03.954Z,4.24
2023-01-15T00:34:20.548Z,4.26
2023-01-15T00:37:36.674Z,4.28
2023-01-15T00:40:53.763Z,4.54
2023-01-15T00:44:10.277Z,4.73
2023-01-15T00:47:26.630Z,4.82
2023-01-15T00:50:42.765Z,4.94
2023-01-15T00:53:58.998Z,5.01
2023-01-15T00:57:16.191Z,5.11
2023-01-15T01:00:32.768Z,5.18
2023-01-15T01:03:49.771Z,5.28
2023-01-15T01:07:05.932Z,5.34
2023-01-15T01:10:21.718Z,5.51
2023-01-15T01:13:38.428Z,5.61
2023-01-15T01:16:55.344Z,5.71
2023-01-15T01:20:15.402Z,5.77
2023-01-15T01:23:33.491Z,5.86
2023-01-15T01:26:51.449Z,5.93
2023-01-15T01:30:09.203Z,5.97
2023-01-15T01:33:25.452Z,6.03
2023-01-15T01:36:44.986Z,6.05
2023-01-15T01:40:01.239Z,6.09
2023-01-15T01:43:26.971Z,6.09
2023-01-15T01:46:44.702Z,6.12
2023-01-15T01:50:05.726Z,6.14
2023-01-15T01:53:29.105Z,6.14
2023-01-15T01:56:46.377Z,6.15
2023-01-15T02:00:05.862Z,6.14
2023-01-15T02:03:25.818Z,6.19
2023-01-15T02:06:44.008Z,6.21
2023-01-15T02:10:01.761Z,6.22
2023-01-15T02:13:23.881Z,6.22
2023-01-15T02:16:45.539Z,6.26
2023-01-15T02:20:07.574Z,6.26
2023-01-15T02:24:08.849Z,6.29
2023-01-15T02:27:29.488Z,6.30
2023-01-15T02:30:49.887Z,6.36
2023-01-15T02:34:11.226Z,6.34
2023-01-15T02:37:32.635Z,6.36
2023-01-15T02:40:50.387Z,6.36
2023-01-15T02:44:11.051Z,6.42
2023-01-15T02:47:33.274Z,6.44
2023-01-15T02:50:54.490Z,6.51
2023-01-15T02:54:17.650Z,6.50
2023-01-15T02:57:38.574Z,6.53
2023-01-15T03:01:01.238Z,6.52
2023-01-15T03:04:25.061Z,6.52
2023-01-15T03:07:48.227Z,6.55
2023-01-15T03:11:11.487Z,6.55
2023-01-15T03:14:35.105Z,6.51
2023-01-15T03:17:55.654Z,6.48
2023-01-15T03:21:16.029Z,6.47
2023-01-15T03:24:41.455Z,6.45
2023-01-15T03:28:00.676Z,6.48
2023-01-15T03:31:18.593Z,6.47
2023-01-15T03:34:42.767Z,6.51
2023-01-15T03:38:00.558Z,6.48
2023-01-15T03:41:27.010Z,6.48
2023-01-15T03:44:52.675Z,6.46
2023-01-15T03:48:14.649Z,6.48
2023-01-15T03:51:37.461Z,6.52
2023-01-15T03:55:01.682Z,6.53
2023-01-15T03:58:23.116Z,6.56
2023-01-15T04:01:43.642Z,6.57
2023-01-15T04:05:01.782Z,6.57
2023-01-15T04:08:20.476Z,6.61
2023-01-15T04:11:38.688Z,6.64
2023-01-15T04:14:56.110Z,6.65
2023-01-15T04:18:12.356Z,6.69
2023-01-15T04:21:29.700Z,6.70
2023-01-15T04:24:46.984Z,6.69
2023-01-15T04:28:06.480Z,6.68
2023-01-15T04:31:23.496Z,6.67
2023-01-15T04:34:40.749Z,6.64
2023-01-15T04:37:58.781Z,6.63
2023-01-15T04:41:30.024Z,6.66
2023-01-15T04:44:47.894Z,6.64
2023-01-15T04:48:04.563Z,6.67
2023-01-15T04:51:21.386Z,6.71
2023-01-15T04:54:38.296Z,6.71
2023-01-15T04:57:56.683Z,6.71
2023-01-15T05:01:17.390Z,6.76
2023-01-15T05:04:34.495Z,6.77
2023-01-15T05:07:56.457Z,6.77
2023-01-15T05:11:15.767Z,6.77
2023-01-15T05:14:33.059Z,6.80
2023-01-15T05:17:49.368Z,6.80
2023-01-15T05:21:06.255Z,6.77
2023-01-15T05:25:01.173Z,6.80
2023-01-15T05:28:49.540Z,6.78
2023-01-15T05:32:09.705Z,6.78
2023-01-15T05:35:26.813Z,6.82
2023-01-15T05:38:43.941Z,6.87
2023-01-15T05:42:00.399Z,6.90
2023-01-15T05:45:19.654Z,6.90
2023-01-15T05:48:37.576Z,6.92
2023-01-15T05:51:55.539Z,6.98
2023-01-15T05:55:12.959Z,7.03
2023-01-15T05:58:32.164Z,7.05
2023-01-15T06:01:48.669Z,7.06
2023-01-15T06:05:06.584Z,7.11
2023-01-15T06:08:23.458Z,7.14
2023-01-15T06:14:46.076Z,7.17
2023-01-15T06:18:02.762Z,7.21
2023-01-15T06:21:25.627Z,7.27
2023-01-15T06:24:42.115Z,7.28
2023-01-15T06:28:06.986Z,7.29
2023-01-15T06:31:27.615Z,7.31
2023-01-15T06:34:46.236Z,7.36
2023-01-15T06:38:03.135Z,7.37
2023-01-15T06:41:46.269Z,7.41
2023-01-15T06:45:41.822Z,7.44
2023-01-15T06:49:19.481Z,7.42
2023-01-15T06:52:37.597Z,7.50
2023-01-15T06:55:54.029Z,7.51
2023-01-15T06:59:13.066Z,7.52
2023-01-15T07:02:29.735Z,7.56
2023-01-15T07:05:49.770Z,7.57
2023-01-15T07:09:19.413Z,7.57
2023-01-15T07:12:37.683Z,7.61
2023-01-15T07:15:54.062Z,7.64
2023-01-15T07:19:11.258Z,7.64
2023-01-15T07:22:27.521Z,7.68
2023-01-15T07:25:43.823Z,7.71
2023-01-15T07:29:00.635Z,7.74
2023-01-15T07:32:17.700Z,7.74
2023-01-15T07:35:36.093Z,7.73
2023-01-15T07:38:53.023Z,7.73
2023-01-15T07:42:23.976Z,7.75
2023-01-15T07:46:02.802Z,7.80
2023-01-15T07:49:35.505Z,7.81
2023-01-15T07:52:53.640Z,7.85
2023-01-15T07:56:11.900Z,7.84
2023-01-15T07:59:28.840Z,7.86
2023-01-15T08:02:46.851Z,7.86
2023-01-15T08:06:03.579Z,7.86
2023-01-15T08:09:21.085Z,7.90
2023-01-15T08:12:51.489Z,7.94
2023-01-15T08:16:08.073Z,7.97
2023-01-15T08:19:25.928Z,8.01
2023-01-15T08:22:45.060Z,8.10
2023-01-15T08:26:01.844Z,8.20
2023-01-15T08:29:18.537Z,8.36
2023-01-15T08:32:35.283Z,8.43
2023-01-15T08:35:52.315Z,8.47
2023-01-15T08:39:09.310Z,8.50
2023-01-15T08:42:26.066Z,8.54
2023-01-15T08:45:42.875Z,8.56
2023-01-15T08:48:59.755Z,8.56
2023-01-15T08:52:16.487Z,8.57
2023-01-15T08:55:34.959Z,8.59
2023-01-15T08:58:53.476Z,8.61
2023-01-15T09:02:11.564Z,8.64
2023-01-15T09:05:29.220Z,8.60
2023-01-15T09:08:46.190Z,8.60
2023-01-15T09:12:02.824Z,8.60
2023-01-15T09:15:21.150Z,8.61
2023-01-15T09:18:37.891Z,8.58
2023-01-15T09:21:57.317Z,8.57
2023-01-15T09:25:17.129Z,8.61
2023-01-15T09:28:34.853Z,8.61
2023-01-15T09:31:51.952Z,8.60
2023-01-15T09:35:08.607Z,8.55
2023-01-15T09:38:27.956Z,8.56
2023-01-15T09:42:15.415Z,8.56
2023-01-15T09:45:37.230Z,8.57
2023-01-15T09:49:03.178Z,8.60
2023-01-15T09:52:27.648Z,8.61
2023-01-15T09:55:48.463Z,8.62
2023-01-15T09:59:11.395Z,8.66
2023-01-15T10:02:36.024Z,8.68
2023-01-15T10:05:58.777Z,8.72
2023-01-15T10:09:21.753Z,8.76
2023-01-15T10:12:41.523Z,8.80
2023-01-15T10:15:58.550Z,8.83
2023-01-15T10:19:19.005Z,8.82
2023-01-15T10:23:03.655Z,8.83
2023-01-15T10:26:31.246Z,8.83
2023-01-15T10:29:52.269Z,8.86
2023-01-15T10:33:14.379Z,8.89
2023-01-15T10:36:36.578Z,8.93
2023-01-15T10:39:58.799Z,8.96
2023-01-15T10:43:23.868Z,8.97
2023-01-15T10:46:44.791Z,8.99
2023-01-15T10:50:04.549Z,8.99
2023-01-15T10:53:23.040Z,8.99
2023-01-15T10:56:48.898Z,9.01
2023-01-15T11:00:10.173Z,8.99
2023-01-15T11:03:32.094Z,9.00
2023-01-15T11:06:49.012Z,8.99
2023-01-15T11:10:08.003Z,9.01
2023-01-15T11:13:44.881Z,8.98
2023-01-15T11:17:15.950Z,8.94
2023-01-15T11:20:38.788Z,8.95
2023-01-15T11:23:56.741Z,8.93
2023-01-15T11:27:13.965Z,8.86
2023-01-15T11:30:40.287Z,8.87
2023-01-15T11:34:06.800Z,8.83
2023-01-15T11:37:23.093Z,8.77
2023-01-15T11:40:40.112Z,8.71
2023-01-15T11:44:19.034Z,8.68
2023-01-15T11:47:49.216Z,8.64
2023-01-15T11:51:12.076Z,8.61
2023-01-15T11:54:28.271Z,8.54
2023-01-15T11:57:46.736Z,8.47
2023-01-15T12:01:04.575Z,8.39
2023-01-15T12:04:45.388Z,8.29
2023-01-15T12:08:04.975Z,8.19
2023-01-15T12:11:57.853Z,8.16
2023-01-15T12:15:37.330Z,8.00
2023-01-15T12:19:07.069Z,7.86
2023-01-15T12:22:34.685Z,7.79
2023-01-15T12:26:02.529Z,7.63
2023-01-15T12:29:25.021Z,7.43
2023-01-15T12:32:46.920Z,7.37
2023-01-15T12:36:10.173Z,7.27
2023-01-15T12:39:32.870Z,7.14
2023-01-15T12:43:12.423Z,7.17
2023-01-15T12:46:33.752Z,7.20
2023-01-15T12:49:55.431Z,7.25
2023-01-15T12:53:18.233Z,7.10
2023-01-15T12:56:41.976Z,7.17
2023-01-15T13:00:03.583Z,7.27
2023-01-15T13:03:32.767Z,7.19
2023-01-15T13:06:52.784Z,7.16
2023-01-15T13:10:17.849Z,7.17
2023-01-15T13:13:39.171Z,7.24
2023-01-15T13:17:00.949Z,7.17
2023-01-15T13:20:41.251Z,7.24
2023-01-15T13:24:11.359Z,7.30
2023-01-15T13:27:40.469Z,7.33
2023-01-15T13:31:12.063Z,7.38
2023-01-15T13:34:35.014Z,7.43
2023-01-15T13:37:55.654Z,7.40
2023-01-15T13:41:15.942Z,7.42
2023-01-15T13:44:44.865Z,7.44
2023-01-15T13:48:13.081Z,7.52
2023-01-15T13:51:39.880Z,7.52
2023-01-15T13:54:56.922Z,7.53
2023-01-15T13:58:28.256Z,7.51
2023-01-15T14:01:46.510Z,7.56
2023-01-15T14:05:04.452Z,7.58
2023-01-15T14:08:46.157Z,7.63
2023-01-15T14:12:18.625Z,7.66
2023-01-15T14:15:46.704Z,7.65
2023-01-15T14:19:39.119Z,7.70
2023-01-15T14:23:12.491Z,7.70
2023-01-15T14:26:36.474Z,7.71
2023-01-15T14:30:33.312Z,7.73
2023-01-15T14:34:01.165Z,7.72
2023-01-15T14:37:35.534Z,7.72
2023-01-15T14:41:14.838Z,7.74
2023-01-15T14:44:45.416Z,7.72
2023-01-15T14:48:10.275Z,7.66
2023-01-15T14:51:34.021Z,7.63
2023-01-15T14:55:09.130Z,7.63
2023-01-15T14:59:21.856Z,7.58
2023-01-15T15:02:43.629Z,7.55
2023-01-15T15:06:09.652Z,7.52
2023-01-15T15:12:50.313Z,7.51
2023-01-15T15:16:12.718Z,7.53
2023-01-15T15:19:36.642Z,7.48
2023-01-15T15:22:55.521Z,7.46
2023-01-15T15:26:24.672Z,7.50
2023-01-15T15:29:41.068Z,7.45
2023-01-15T15:33:00.101Z,7.47
2023-01-15T15:36:19.747Z,7.45
2023-01-15T15:39:48.715Z,7.51
2023-01-15T15:43:25.853Z,7.55
2023-01-15T15:47:04.939Z,7.53
2023-01-15T15:50:32.662Z,7.56
2023-01-15T15:57:31.297Z,7.56
2023-01-15T16:01:12.284Z,7.55
2023-01-15T16:04:32.733Z,7.59
2023-01-15T16:07:49.279Z,7.53
2023-01-15T16:11:11.301Z,7.58
2023-01-15T16:14:29.825Z,7.54
2023-01-15T16:17:49.663Z,7.58
2023-01-15T16:21:07.204Z,7.60
2023-01-15T16:24:37.544Z,7.61
2023-01-15T16:27:57.818Z,7.64
2023-01-15T16:31:14.503Z,7.63
2023-01-15T16:34:39.694Z,7.68
2023-01-15T16:38:03.619Z,7.68
2023-01-15T16:41:35.181Z,7.70
2023-01-15T16:45:14.972Z,7.71
2023-01-15T16:48:48.511Z,7.70
2023-01-15T16:52:19.040Z,7.70
2023-01-15T16:55:56.938Z,7.71
2023-01-15T16:59:18.137Z,7.70
2023-01-15T17:02:40.727Z,7.66
2023-01-15T17:06:01.658Z,7.64
2023-01-15T17:09:41.128Z,7.54
2023-01-15T17:13:01.540Z,7.48
2023-01-15T17:16:29.274Z,7.44
2023-01-15T17:19:46.071Z,7.38
2023-01-15T17:23:23.969Z,7.32
2023-01-15T17:26:33.760Z,7.28
2023-01-15T17:29:51.201Z,7.25
2023-01-15T17:33:10.236Z,7.07
2023-01-15T17:36:27.099Z,7.01
2023-01-15T17:39:44.205Z,6.88
2023-01-15T17:43:00.943Z,6.92
2023-01-15T17:46:20.690Z,6.91
2023-01-15T17:49:38.827Z,6.86
2023-01-15T17:52:56.261Z,6.79
2023-01-15T17:56:29.007Z,6.74
2023-01-15T18:00:09.631Z,6.73
2023-01-15T18:03:44.610Z,6.68
2023-01-15T18:07:04.012Z,6.66
2023-01-15T18:10:23.472Z,6.62
2023-01-15T18:13:37.525Z,6.60
2023-01-15T18:16:54.151Z,6.57
2023-01-15T18:20:11.367Z,6.53
2023-01-15T18:23:28.419Z,6.55
2023-01-15T18:26:49.467Z,6.45
2023-01-15T18:30:06.294Z,6.40
2023-01-15T18:33:22.779Z,6.43
2023-01-15T18:36:44.211Z,6.37
2023-01-15T18:40:00.764Z,6.37
2023-01-15T18:43:31.641Z,6.36
2023-01-15T18:46:51.121Z,6.40
2023-01-15T18:50:07.565Z,6.34
2023-01-15T18:53:23.913Z,6.26
2023-01-15T18:56:47.998Z,6.29
2023-01-15T19:00:06.611Z,6.26
2023-01-15T19:03:26.753Z,6.11
2023-01-15T19:06:48.502Z,6.09
2023-01-15T19:10:05.252Z,5.94
2023-01-15T19:13:21.912Z,5.94
2023-01-15T19:16:52.328Z,5.96
2023-01-15T19:20:09.311Z,5.90
2023-01-15T19:23:27.557Z,5.89
2023-01-15T19:26:46.019Z,5.82
2023-01-15T19:30:03.032Z,5.87
2023-01-15T19:33:33.083Z,5.81
2023-01-15T19:36:54.505Z,5.84
2023-01-15T19:40:12.521Z,5.85
2023-01-15T19:43:43.540Z,5.83
2023-01-15T19:47:22.726Z,5.78
2023-01-15T19:50:44.162Z,5.76
2023-01-15T19:54:03.947Z,5.69
2023-01-15T19:57:22.436Z,5.72
2023-01-15T20:00:43.217Z,5.60
2023-01-15T20:04:03.176Z,5.58
2023-01-15T20:07:20.509Z,5.59
2023-01-15T20:10:40.185Z,5.60
2023-01-15T20:14:05.438Z,5.63
2023-01-15T20:17:37.752Z,5.54
2023-01-15T20:20:59.422Z,5.50
2023-01-15T20:24:16.486Z,5.51
2023-01-15T20:27:35.383Z,5.51
2023-01-15T20:30:54.309Z,5.45
2023-01-15T20:34:10.978Z,5.54
2023-01-15T20:37:29.606Z,5.42
2023-01-15T20:40:47.792Z,5.33
2023-01-15T20:44:18.383Z,5.29
2023-01-15T20:47:49.956Z,5.20
2023-01-15T20:51:07.684Z,5.12
2023-01-15T20:54:24.701Z,5.10
2023-01-15T20:57:44.363Z,5.09
2023-01-15T21:01:03.225Z,5.08
2023-01-15T21:04:19.948Z,5.07
2023-01-15T21:07:36.382Z,5.07
2023-01-15T21:10:56.011Z,5.08
2023-01-15T21:14:12.873Z,4.97
2023-01-15T21:17:29.260Z,5.00
2023-01-15T21:20:46.683Z,4.95
2023-01-15T21:24:04.919Z,4.99
2023-01-15T21:27:21.447Z,4.91
2023-01-15T21:30:40.963Z,4.87
2023-01-15T21:34:04.256Z,4.85
2023-01-15T21:37:23.077Z,4.82
2023-01-15T21:40:57.852Z,4.80
2023-01-15T21:44:42.938Z,4.82
2023-01-15T21:49:17.774Z,4.76
2023-01-15T21:53:18.179Z,4.80
2023-01-15T21:57:22.638Z,4.81
2023-01-15T22:01:34.087Z,4.78
2023-01-15T22:05:04.611Z,4.80
2023-01-15T22:08:32.232Z,4.81
2023-01-15T22:11:49.937Z,4.78
2023-01-15T22:15:06.933Z,4.74
2023-01-15T22:18:23.180Z,4.76
2023-01-15T22:21:40.054Z,4.76
2023-01-15T22:24:56.397Z,4.72
2023-01-15T22:28:12.718Z,4.66
2023-01-15T22:31:31.105Z,4.71
2023-01-15T22:34:47.943Z,4.69
2023-01-15T22:38:04.342Z,4.67
2023-01-15T22:41:25.866Z,4.64
2023-01-15T22:44:44.201Z,4.65
2023-01-15T22:48:00.472Z,4.68
2023-01-15T22:51:17.060Z,4.65
2023-01-15T22:54:33.764Z,4.68
2023-01-15T22:57:50.134Z,4.64
2023-01-15T23:01:06.619Z,4.64
2023-01-15T23:04:26.067Z,4.62
2023-01-15T23:07:41.645Z,4.54
2023-01-15T23:10:57.790Z,4.54
2023-01-15T23:14:16.463Z,4.59
2023-01-15T23:17:32.778Z,4.59
2023-01-15T23:20:50.146Z,4.57
2023-01-15T23:24:08.315Z,4.55
2023-01-15T23:27:24.717Z,4.62
2023-01-15T23:30:40.599Z,4.59
2023-01-15T23:33:57.281Z,4.57
2023-01-15T23:37:13.494Z,4.64
2023-01-15T23:40:39.365Z,4.68
2023-01-15T23:44:11.814Z,4.72
2023-01-15T23:47:28.057Z,4.73
2023-01-15T23:50:44.381Z,4.73
2023-01-15T23:54:01.905Z,4.70
2023-01-15T23:57:21.532Z,4.73
